Time;durP1;ratioP1;P1;durP2;ratioP2;P2;SDS_P1;SDS_P2;PMS_P1;PMS_P2;Temp;Humidity;BMP_temperature;BMP_pressure;BME280_temperature;BME280_humidity;BME280_pressure;Samples;Min_cycle;Max_cycle;Signal;HPM_P1;HPM_P2
2022/05/17 00:00:46;;;;;;;3.15;1.25;;;16.00;82.00;;;;;;2064997;28;20038;-91
2022/05/17 00:02:05;;;;;;;2.67;1.15;;;16.00;81.40;;;;;;2052068;29;20514;-92
2022/05/17 00:03:26;;;;;;;3.00;1.40;;;16.00;81.40;;;;;;2063456;28;20556;-92
2022/05/17 00:04:45;;;;;;;3.63;1.30;;;15.90;82.10;;;;;;2068825;28;20030;-78
2022/05/17 00:06:05;;;;;;;2.63;1.13;;;15.90;81.50;;;;;;2061018;28;20022;-92
2022/05/17 00:07:25;;;;;;;3.13;1.33;;;15.90;81.50;;;;;;2055893;28;20434;-92
2022/05/17 00:08:44;;;;;;;3.95;1.40;;;15.90;81.60;;;;;;2053532;28;20512;-92
2022/05/17 00:10:04;;;;;;;2.70;1.02;;;15.90;81.70;;;;;;2075376;28;20034;-91
2022/05/17 00:11:24;;;;;;;4.70;1.23;;;15.90;81.80;;;;;;2060823;28;20495;-92
2022/05/17 00:12:43;;;;;;;2.95;1.30;;;15.90;81.70;;;;;;2074221;28;20023;-78
2022/05/17 00:14:03;;;;;;;2.90;1.17;;;15.90;81.70;;;;;;2063985;28;20425;-92
2022/05/17 00:15:23;;;;;;;3.20;1.30;;;15.90;81.80;;;;;;2069075;28;20030;-92
2022/05/17 00:16:45;;;;;;;6.20;1.17;;;15.90;81.80;;;;;;2065859;28;20504;-93
2022/05/17 00:18:04;;;;;;;2.88;1.30;;;15.80;81.90;;;;;;2071494;28;20037;-92
2022/05/17 00:19:24;;;;;;;2.40;1.10;;;15.80;81.90;;;;;;2056146;28;20101;-92
2022/05/17 00:20:45;;;;;;;2.67;1.27;;;15.80;81.90;;;;;;2052686;28;20517;-92
2022/05/17 00:22:04;;;;;;;3.55;1.48;;;15.80;82.00;;;;;;2052948;28;20042;-94
2022/05/17 00:23:23;;;;;;;3.28;1.20;;;15.80;82.10;;;;;;2065226;28;20433;-93
2022/05/17 00:24:43;;;;;;;4.38;1.35;;;15.80;82.10;;;;;;2067668;28;20038;-92
2022/05/17 00:26:03;;;;;;;4.70;1.33;;;15.70;82.20;;;;;;2071497;28;20555;-92
2022/05/17 00:27:23;;;;;;;2.65;1.17;;;15.70;82.20;;;;;;2062157;28;20058;-93
2022/05/17 00:28:43;;;;;;;3.85;1.45;;;15.70;82.30;;;;;;2058814;28;20043;-92
2022/05/17 00:30:04;;;;;;;3.03;1.25;;;15.70;82.30;;;;;;2068013;28;20018;-92
2022/05/17 00:31:24;;;;;;;3.75;1.40;;;15.60;82.40;;;;;;2071853;28;20369;-93
2022/05/17 00:32:43;;;;;;;4.50;1.30;;;15.70;82.50;;;;;;2075433;28;20504;-91
2022/05/17 00:34:03;;;;;;;3.72;1.33;;;15.70;82.60;;;;;;2066751;28;20070;-93
2022/05/17 00:35:22;;;;;;;2.80;1.23;;;15.70;82.60;;;;;;2049951;28;20035;-92
2022/05/17 00:36:41;;;;;;;3.42;1.50;;;15.70;82.50;;;;;;2068939;28;20046;-92
2022/05/17 00:38:00;;;;;;;3.80;1.30;;;15.70;82.60;;;;;;2064209;28;20042;-92
2022/05/17 00:39:20;;;;;;;2.90;1.10;;;15.70;82.50;;;;;;2064190;28;20117;-92
2022/05/17 00:40:40;;;;;;;3.70;1.33;;;15.80;82.50;;;;;;2060491;28;20074;-92
2022/05/17 00:41:59;;;;;;;4.53;1.40;;;15.80;82.50;;;;;;2060940;28;20038;-92
2022/05/17 00:45:13;;;;;;;4.70;1.40;;;15.80;82.40;;;;;;2075065;28;20042;-92
2022/05/17 00:46:51;;;;;;;4.15;1.20;;;15.80;82.40;;;;;;2066199;28;20042;-92
2022/05/17 00:48:11;;;;;;;3.72;1.52;;;15.90;82.40;;;;;;2066306;28;20038;-92
2022/05/17 00:49:36;;;;;;;3.58;1.45;;;15.90;82.30;;;;;;2048312;29;20047;-92
2022/05/17 00:50:56;;;;;;;2.33;1.20;;;15.90;82.40;;;;;;2059297;28;20046;-92
2022/05/17 00:52:20;;;;;;;2.60;1.10;;;15.90;82.30;;;;;;2062935;28;20101;-91
2022/05/17 00:53:40;;;;;;;4.70;1.50;;;15.90;82.50;;;;;;2069775;28;20105;-91
2022/05/17 00:55:09;;;;;;;3.75;1.40;;;15.90;82.50;;;;;;2069769;28;20038;-92
2022/05/17 00:56:29;;;;;;;3.08;1.15;;;15.90;82.50;;;;;;2064738;28;20065;-92
2022/05/17 00:58:12;;;;;;;4.35;1.38;;;15.90;82.50;;;;;;2055395;28;20050;-93
2022/05/17 00:59:33;;;;;;;3.67;1.20;;;15.90;82.60;;;;;;2059019;28;20430;-92
2022/05/17 01:01:02;;;;;;;3.72;1.52;;;15.80;82.50;;;;;;2066699;28;20046;-92
2022/05/17 01:02:21;;;;;;;4.30;1.00;;;15.80;82.50;;;;;;2073632;28;20037;-92
2022/05/17 01:03:48;;;;;;;2.75;1.20;;;15.80;82.60;;;;;;2058830;28;20039;-93
2022/05/17 01:05:07;;;;;;;2.95;1.20;;;15.80;82.70;;;;;;2070687;28;20042;-93
2022/05/17 01:06:40;;;;;;;5.75;1.60;;;15.80;82.70;;;;;;2074099;28;20034;-92
2022/05/17 01:08:01;;;;;;;2.78;1.10;;;15.80;82.80;;;;;;2063684;28;20520;-91
2022/05/17 01:09:22;;;;;;;2.80;1.35;;;15.80;82.80;;;;;;2062872;28;20038;-92
2022/05/17 01:10:41;;;;;;;3.25;1.15;;;15.70;82.80;;;;;;2063727;28;20117;-92
2022/05/17 01:12:00;;;;;;;4.38;1.30;;;15.70;82.80;;;;;;2068345;28;20523;-91
2022/05/17 01:15:04;;;;;;;3.20;1.23;;;15.70;83.10;;;;;;2074453;28;20396;-92
2022/05/17 01:16:25;;;;;;;4.60;1.52;;;15.60;83.70;;;;;;2074299;28;20038;-91
2022/05/17 01:17:44;;;;;;;;;;;15.60;83.20;;;;;;2072620;28;20061;-91
2022/05/17 01:19:07;;;;;;;3.22;1.30;;;15.60;83.20;;;;;;2079459;28;20355;-91
2022/05/17 01:20:26;;;;;;;3.35;1.42;;;15.60;83.20;;;;;;2074714;28;20424;-91
2022/05/17 01:21:46;;;;;;;3.17;1.30;;;15.60;83.30;;;;;;2066315;28;20042;-92
2022/05/17 01:23:06;;;;;;;4.03;1.40;;;15.50;83.30;;;;;;2060507;28;20508;-92
2022/05/17 01:24:25;;;;;;;4.68;1.60;;;15.50;83.30;;;;;;2074880;28;20280;-92
2022/05/17 01:25:44;;;;;;;3.03;1.40;;;15.50;83.50;;;;;;2054986;28;20030;-92
2022/05/17 01:27:16;;;;;;;4.68;1.83;;;15.50;83.50;;;;;;2064287;28;20030;-92
2022/05/17 01:28:37;;;;;;;4.15;1.52;;;15.50;83.70;;;;;;2075026;28;20072;-91
2022/05/17 01:29:56;;;;;;;4.82;1.90;;;15.50;84.40;;;;;;2079011;28;20458;-91
2022/05/17 01:31:17;;;;;;;3.75;1.60;;;15.40;83.70;;;;;;2092925;28;20076;-89
2022/05/17 01:32:36;;;;;;;3.47;1.30;;;15.50;83.90;;;;;;2091625;28;20053;-91
2022/05/17 01:33:55;;;;;;;5.68;1.73;;;15.50;83.80;;;;;;2088203;28;20057;-92
2022/05/17 01:35:17;;;;;;;3.40;1.55;;;15.50;83.80;;;;;;2081837;28;20026;-90
2022/05/17 01:36:36;;;;;;;3.92;1.70;;;15.50;83.80;;;;;;2077154;28;20038;-91
2022/05/17 01:37:56;;;;;;;4.13;1.60;;;15.60;83.80;;;;;;2087294;28;20045;-93
2022/05/17 01:39:16;;;;;;;3.47;1.50;;;15.60;83.80;;;;;;2080654;28;20471;-93
2022/05/17 01:40:35;;;;;;;3.72;1.40;;;15.60;83.70;;;;;;2086080;28;20014;-92
2022/05/17 01:41:55;;;;;;;4.55;1.38;;;15.60;83.70;;;;;;2085685;28;20034;-91
2022/05/17 01:43:14;;;;;;;3.70;1.50;;;15.60;83.70;;;;;;2100035;28;20033;-92
2022/05/17 01:44:34;;;;;;;4.53;1.60;;;15.70;83.70;;;;;;2087316;28;20054;-93
2022/05/17 01:45:53;;;;;;;4.30;1.70;;;15.70;83.70;;;;;;2071344;28;20061;-91
2022/05/17 01:47:14;;;;;;;3.97;1.63;;;15.70;83.60;;;;;;2082329;28;20032;-92
2022/05/17 01:48:33;;;;;;;3.35;1.50;;;15.70;83.60;;;;;;2065189;28;20054;-91
2022/05/17 01:49:52;;;;;;;3.80;1.60;;;15.70;83.50;;;;;;2060701;28;20047;-92
2022/05/17 01:51:12;;;;;;;3.45;1.58;;;15.80;83.60;;;;;;2063447;28;20039;-83
2022/05/17 01:52:31;;;;;;;4.28;1.80;;;15.80;83.60;;;;;;2063652;28;20051;-92
2022/05/17 01:53:50;;;;;;;4.20;1.63;;;15.80;83.60;;;;;;2066327;28;20054;-92
2022/05/17 01:55:10;;;;;;;2.65;1.20;;;15.80;83.60;;;;;;2071474;28;20042;-92
2022/05/17 01:56:29;;;;;;;3.70;1.42;;;15.80;83.70;;;;;;2061131;28;20117;-92
2022/05/17 01:57:48;;;;;;;3.83;1.60;;;15.80;83.70;;;;;;2058014;28;20116;-92
2022/05/17 01:59:08;;;;;;;5.63;1.40;;;15.80;83.80;;;;;;2072448;28;20034;-92
2022/05/17 02:00:27;;;;;;;5.63;1.35;;;15.80;83.80;;;;;;2058189;28;20043;-92
2022/05/17 02:01:46;;;;;;;4.68;1.60;;;15.80;83.80;;;;;;2052436;28;20047;-91
2022/05/17 02:03:05;;;;;;;4.38;1.60;;;15.80;83.80;;;;;;2059954;28;20521;-92
2022/05/17 02:04:25;;;;;;;3.55;1.65;;;15.70;83.90;;;;;;2062664;28;20526;-92
2022/05/17 02:05:44;;;;;;;3.83;1.60;;;15.70;83.90;;;;;;2063064;28;20046;-92
2022/05/17 02:07:03;;;;;;;4.53;1.60;;;15.70;84.00;;;;;;2060848;28;20043;-92
2022/05/17 02:08:23;;;;;;;3.45;1.60;;;15.70;84.10;;;;;;2055515;28;20052;-91
2022/05/17 02:09:42;;;;;;;3.60;1.70;;;15.60;84.10;;;;;;2067127;28;20543;-92
2022/05/17 02:11:01;;;;;;;5.03;1.63;;;15.60;84.10;;;;;;2051519;28;20035;-92
2022/05/17 02:12:21;;;;;;;5.55;1.85;;;15.60;84.20;;;;;;2072872;28;20097;-92
2022/05/17 02:13:41;;;;;;;3.67;1.50;;;15.60;84.20;;;;;;2076229;28;20053;-91
2022/05/17 02:15:03;;;;;;;5.30;1.75;;;15.60;84.20;;;;;;2078095;28;20041;-92
2022/05/17 02:16:22;;;;;;;4.22;1.60;;;15.60;84.20;;;;;;2070862;28;20085;-92
2022/05/17 02:17:42;;;;;;;4.13;1.70;;;15.60;84.20;;;;;;2067744;28;20050;-92
2022/05/17 02:19:01;;;;;;;4.43;1.80;;;15.60;84.30;;;;;;2063016;28;20046;-92
2022/05/17 02:20:21;;;;;;;4.50;1.70;;;15.60;84.40;;;;;;2067944;28;20107;-92
2022/05/17 02:21:40;;;;;;;4.85;1.75;;;15.60;84.40;;;;;;2085871;28;20029;-92
2022/05/17 02:23:00;;;;;;;2.88;1.48;;;15.60;84.40;;;;;;2079875;28;20041;-92
2022/05/17 02:24:19;;;;;;;3.13;1.70;;;15.60;84.50;;;;;;2063050;28;20485;-92
2022/05/17 02:25:38;;;;;;;2.92;1.63;;;15.60;84.50;;;;;;2068143;28;20050;-91
2022/05/17 02:26:58;;;;;;;3.65;1.70;;;15.60;84.50;;;;;;2069800;28;20516;-92
2022/05/17 02:28:17;;;;;;;3.53;1.60;;;15.50;84.50;;;;;;2060772;28;20439;-91
2022/05/17 02:29:37;;;;;;;3.58;1.40;;;15.50;84.60;;;;;;2063797;28;20110;-91
2022/05/17 02:30:56;;;;;;;5.00;1.90;;;15.50;84.70;;;;;;2060891;28;20038;-92
2022/05/17 02:32:16;;;;;;;4.47;2.05;;;15.50;84.70;;;;;;2062740;28;20039;-93
2022/05/17 02:33:35;;;;;;;5.85;1.80;;;15.50;84.80;;;;;;2066288;28;20507;-92
2022/05/17 02:34:54;;;;;;;3.50;1.70;;;15.50;84.70;;;;;;2055010;28;20113;-92
2022/05/17 02:36:14;;;;;;;3.85;1.50;;;15.50;84.70;;;;;;2067781;28;20444;-92
2022/05/17 02:37:34;;;;;;;3.88;1.70;;;15.60;84.70;;;;;;2066204;28;20464;-92
2022/05/17 02:38:53;;;;;;;3.95;1.77;;;15.60;84.60;;;;;;2066739;28;20140;-92
2022/05/17 02:40:13;;;;;;;3.80;1.73;;;15.60;84.60;;;;;;2062977;28;20125;-92
2022/05/17 02:41:32;;;;;;;3.17;1.45;;;15.60;84.50;;;;;;2055214;28;20034;-92
2022/05/17 02:42:51;;;;;;;4.15;1.75;;;15.60;84.50;;;;;;2068109;28;20038;-92
2022/05/17 02:44:11;;;;;;;3.17;1.60;;;15.60;84.50;;;;;;2075574;28;20598;-90
2022/05/17 02:45:31;;;;;;;4.78;1.70;;;15.70;84.40;;;;;;2079274;28;20069;-92
2022/05/17 02:46:50;;;;;;;2.42;1.55;;;15.70;84.40;;;;;;2073834;28;20121;-91
2022/05/17 02:48:09;;;;;;;3.58;1.70;;;15.60;84.40;;;;;;2068524;28;20534;-91
2022/05/17 02:49:28;;;;;;;3.97;1.77;;;15.60;84.50;;;;;;2061337;28;20043;-91
2022/05/17 02:50:47;;;;;;;4.03;1.67;;;15.60;84.60;;;;;;2071230;28;20029;-91
2022/05/17 02:52:07;;;;;;;4.35;1.85;;;15.60;84.60;;;;;;2069013;28;20022;-92
2022/05/17 02:53:26;;;;;;;3.85;1.65;;;15.60;84.70;;;;;;2070626;28;20069;-92
2022/05/17 02:54:46;;;;;;;3.58;1.67;;;15.60;84.70;;;;;;2078943;28;20045;-92
2022/05/17 02:56:05;;;;;;;3.65;1.50;;;15.60;84.70;;;;;;2078738;28;20128;-91
2022/05/17 02:57:25;;;;;;;4.15;1.80;;;15.60;84.70;;;;;;2069783;28;20038;-90
2022/05/17 02:58:45;;;;;;;3.75;1.70;;;15.60;84.80;;;;;;2069333;28;20045;-92
2022/05/17 03:00:08;;;;;;;4.88;1.70;;;15.60;84.80;;;;;;2071167;28;20034;-91
2022/05/17 03:01:27;;;;;;;5.03;1.77;;;15.60;84.90;;;;;;2077242;28;20455;-91
2022/05/17 03:02:46;;;;;;;3.65;1.60;;;15.60;84.90;;;;;;2070583;28;20046;-91
2022/05/17 03:04:05;;;;;;;4.28;1.60;;;15.50;84.90;;;;;;2069835;28;20042;-92
2022/05/17 03:05:25;;;;;;;3.97;1.50;;;15.50;84.90;;;;;;2065785;28;20443;-92
2022/05/17 03:06:45;;;;;;;3.63;1.42;;;15.50;85.00;;;;;;2071270;28;20034;-90
2022/05/17 03:08:05;;;;;;;5.22;1.80;;;15.50;85.00;;;;;;2068584;28;20038;-91
2022/05/17 03:09:24;;;;;;;3.90;1.80;;;15.50;85.10;;;;;;2068378;28;20030;-85
2022/05/17 03:10:44;;;;;;;3.85;1.80;;;15.40;85.10;;;;;;2082378;28;20033;-81
2022/05/17 03:12:05;;;;;;;5.20;1.88;;;15.40;85.20;;;;;;2093138;28;20044;-91
2022/05/17 03:13:24;;;;;;;3.50;1.60;;;15.40;85.20;;;;;;2082956;28;20034;-90
2022/05/17 03:14:43;;;;;;;3.67;1.50;;;15.40;85.20;;;;;;2089203;28;20017;-81
2022/05/17 03:16:04;;;;;;;3.28;1.45;;;15.40;85.20;;;;;;2083687;28;20042;-91
2022/05/17 03:17:23;;;;;;;3.60;1.70;;;15.30;85.20;;;;;;2081914;28;20033;-91
2022/05/17 03:18:42;;;;;;;2.38;1.42;;;15.30;85.20;;;;;;2068768;28;20046;-91
2022/05/17 03:20:02;;;;;;;3.75;1.80;;;15.40;85.30;;;;;;2071621;28;20062;-91
2022/05/17 03:21:21;;;;;;;3.15;1.60;;;15.30;85.40;;;;;;2079526;28;20041;-82
2022/05/17 03:22:41;;;;;;;3.30;1.65;;;15.30;85.40;;;;;;2088767;28;20025;-84
2022/05/17 03:24:00;;;;;;;4.47;1.88;;;15.30;85.50;;;;;;2060716;28;20513;-91
2022/05/17 03:25:19;;;;;;;4.15;1.75;;;15.30;85.60;;;;;;2051447;28;20087;-91
2022/05/17 03:26:39;;;;;;;4.75;1.75;;;15.20;85.50;;;;;;2061883;28;20042;-91
2022/05/17 03:27:58;;;;;;;4.95;2.00;;;15.20;85.60;;;;;;2063894;28;20035;-91
2022/05/17 03:29:17;;;;;;;4.40;1.75;;;15.20;85.60;;;;;;2074068;28;20033;-90
2022/05/17 03:30:38;;;;;;;4.32;2.08;;;15.20;85.70;;;;;;2084802;28;20516;-84
2022/05/17 03:31:59;;;;;;;3.67;1.67;;;15.20;85.70;;;;;;2074820;28;20042;-90
2022/05/17 03:33:18;;;;;;;3.75;1.92;;;15.20;85.70;;;;;;2068847;28;20120;-91
2022/05/17 03:34:38;;;;;;;2.97;1.60;;;15.20;85.60;;;;;;2064748;28;20042;-91
2022/05/17 03:35:57;;;;;;;3.35;1.63;;;15.20;86.20;;;;;;2070496;28;20113;-91
2022/05/17 03:37:16;;;;;;;4.00;1.85;;;15.20;85.60;;;;;;2072481;28;20046;-91
2022/05/17 03:38:36;;;;;;;3.58;1.42;;;15.20;85.70;;;;;;2073375;28;20030;-91
2022/05/17 03:39:56;;;;;;;3.20;1.77;;;15.20;85.70;;;;;;2067168;28;20515;-91
2022/05/17 03:41:15;;;;;;;4.35;1.73;;;15.20;85.70;;;;;;2069437;28;20046;-90
2022/05/17 03:42:34;;;;;;;3.00;1.60;;;15.20;85.80;;;;;;2060692;28;20493;-90
2022/05/17 03:43:54;;;;;;;3.75;1.77;;;15.20;85.80;;;;;;2051711;28;20055;-91
2022/05/17 03:45:14;;;;;;;3.50;1.65;;;15.10;85.90;;;;;;2063735;28;20030;-91
2022/05/17 03:46:34;;;;;;;5.55;1.95;;;15.10;86.00;;;;;;2065980;28;20054;-91
2022/05/17 03:47:53;;;;;;;4.50;1.80;;;15.10;86.00;;;;;;2060327;28;20038;-91
2022/05/17 03:49:12;;;;;;;3.85;1.80;;;15.10;86.10;;;;;;2066917;28;20097;-91
2022/05/17 03:50:32;;;;;;;3.67;1.50;;;15.10;86.20;;;;;;2072583;28;20038;-91
2022/05/17 03:51:51;;;;;;;3.20;1.65;;;15.20;86.30;;;;;;2062437;28;20072;-91
2022/05/17 03:53:10;;;;;;;4.18;1.70;;;15.10;86.20;;;;;;2064099;28;20033;-91
2022/05/17 03:54:29;;;;;;;3.58;1.67;;;15.20;86.20;;;;;;2070399;28;20041;-92
2022/05/17 03:55:49;;;;;;;4.03;1.60;;;15.20;86.20;;;;;;2079180;28;20041;-92
2022/05/17 03:57:08;;;;;;;4.57;1.60;;;15.20;86.20;;;;;;2081114;28;20344;-91
2022/05/17 03:58:27;;;;;;;3.92;1.70;;;15.20;86.10;;;;;;2077745;28;20038;-91
2022/05/17 03:59:46;;;;;;;3.25;1.42;;;15.20;86.10;;;;;;2065126;28;20121;-92
2022/05/17 04:01:06;;;;;;;3.28;1.52;;;15.30;86.00;;;;;;2073110;28;20077;-91
2022/05/17 04:02:26;;;;;;;3.67;1.83;;;15.30;86.00;;;;;;2065524;28;20529;-91
2022/05/17 04:03:45;;;;;;;4.32;1.90;;;15.30;85.90;;;;;;2069854;28;20495;-91
2022/05/17 04:05:04;;;;;;;3.72;1.65;;;15.40;85.90;;;;;;2079806;28;20033;-90
2022/05/17 04:06:25;;;;;;;3.33;1.70;;;15.40;85.80;;;;;;2069255;28;20049;-91
2022/05/17 04:07:44;;;;;;;3.85;1.67;;;15.40;85.80;;;;;;2062848;28;20062;-91
2022/05/17 04:09:05;;;;;;;5.25;1.73;;;15.50;85.80;;;;;;2070174;28;20046;-90
2022/05/17 04:10:24;;;;;;;3.45;1.55;;;15.50;85.70;;;;;;2068442;28;20542;-91
2022/05/17 04:11:43;;;;;;;3.70;1.70;;;15.50;85.60;;;;;;2079717;28;20046;-91
2022/05/17 04:13:05;;;;;;;4.45;1.58;;;15.50;85.60;;;;;;2068597;28;20058;-91
2022/05/17 04:14:24;;;;;;;3.95;1.40;;;15.60;85.60;;;;;;2067992;28;20086;-85
2022/05/17 04:15:43;;;;;;;3.72;1.42;;;15.60;85.60;;;;;;2058103;28;20023;-91
2022/05/17 04:17:03;;;;;;;3.67;1.40;;;15.60;85.60;;;;;;2060919;28;20046;-90
2022/05/17 04:18:23;;;;;;;5.07;1.90;;;15.60;85.60;;;;;;2060678;28;20034;-90
2022/05/17 04:19:42;;;;;;;3.15;1.70;;;15.70;86.10;;;;;;2067237;28;20038;-91
2022/05/17 04:21:03;;;;;;;3.33;1.35;;;15.70;85.40;;;;;;2077387;28;20479;-91
2022/05/17 04:22:22;;;;;;;3.33;1.50;;;15.80;85.40;;;;;;2063740;28;20042;-91
2022/05/17 04:23:42;;;;;;;3.95;1.48;;;15.80;85.40;;;;;;2058596;28;20047;-91
2022/05/17 04:25:01;;;;;;;4.28;1.58;;;15.80;85.30;;;;;;2069524;28;20045;-91
2022/05/17 04:26:20;;;;;;;3.35;1.25;;;15.80;85.80;;;;;;2069307;28;20049;-91
2022/05/17 04:27:39;;;;;;;4.72;1.80;;;15.90;85.30;;;;;;2063346;28;20034;-91
2022/05/17 04:28:59;;;;;;;3.70;1.67;;;15.90;85.30;;;;;;2063832;28;20034;-90
2022/05/17 04:30:18;;;;;;;4.20;1.55;;;15.90;85.30;;;;;;2052293;28;20535;-91
2022/05/17 04:31:37;;;;;;;3.38;1.45;;;15.90;85.30;;;;;;2054931;28;20038;-92
2022/05/17 04:32:59;;;;;;;3.00;1.60;;;16.00;85.30;;;;;;2062557;28;20039;-92
2022/05/17 04:34:18;;;;;;;4.15;1.52;;;16.00;85.30;;;;;;2077566;28;20045;-91
2022/05/17 04:35:38;;;;;;;3.05;1.58;;;16.00;85.30;;;;;;2068681;28;20420;-91
2022/05/17 04:36:58;;;;;;;2.97;1.77;;;16.00;85.20;;;;;;2069106;28;20512;-91
2022/05/17 04:38:17;;;;;;;3.53;1.45;;;16.00;85.20;;;;;;2066883;28;20035;-91
2022/05/17 04:39:37;;;;;;;3.17;1.58;;;16.00;85.30;;;;;;2073589;28;20033;-90
2022/05/17 04:40:56;;;;;;;3.22;1.58;;;16.10;85.30;;;;;;2082195;28;20041;-90
2022/05/17 04:42:15;;;;;;;3.53;1.83;;;16.00;85.30;;;;;;2066950;28;20117;-91
2022/05/17 04:43:35;;;;;;;4.45;1.77;;;16.10;85.40;;;;;;2068434;28;20070;-91
2022/05/17 04:44:53;;;;;;;4.30;1.55;;;16.10;85.50;;;;;;2068429;28;20451;-90
2022/05/17 04:46:13;;;;;;;4.18;1.92;;;16.10;85.50;;;;;;2069708;28;20046;-91
2022/05/17 04:47:32;;;;;;;3.50;1.90;;;16.10;85.60;;;;;;2064658;28;20485;-91
2022/05/17 04:48:52;;;;;;;4.72;1.75;;;16.10;85.70;;;;;;2063263;28;20043;-91
2022/05/17 04:50:13;;;;;;;3.72;1.70;;;16.10;85.70;;;;;;2082318;28;20030;-83
2022/05/17 04:51:33;;;;;;;3.80;1.92;;;16.10;85.80;;;;;;2085663;28;20041;-92
2022/05/17 04:52:53;;;;;;;3.15;1.75;;;16.10;85.80;;;;;;2077770;28;20109;-91
2022/05/17 04:54:12;;;;;;;3.78;1.60;;;16.20;85.80;;;;;;2084936;28;20093;-81
2022/05/17 04:55:33;;;;;;;4.68;1.90;;;16.20;85.80;;;;;;2077958;28;20034;-91
2022/05/17 04:56:52;;;;;;;4.85;1.70;;;16.20;85.80;;;;;;2071752;28;20038;-91
2022/05/17 04:58:11;;;;;;;3.90;1.83;;;16.20;85.70;;;;;;2073443;28;20517;-91
2022/05/17 04:59:30;;;;;;;4.43;1.80;;;16.20;85.70;;;;;;2072704;28;20043;-91
2022/05/17 05:00:50;;;;;;;3.80;1.85;;;16.30;85.80;;;;;;2078358;28;21056;-91
2022/05/17 05:02:09;;;;;;;3.05;1.90;;;16.20;85.70;;;;;;2091057;28;20033;-90
2022/05/17 05:03:31;;;;;;;5.88;2.10;;;16.30;85.80;;;;;;2087974;28;20006;-91
2022/05/17 05:04:50;;;;;;;2.50;1.80;;;16.30;85.70;;;;;;2083680;28;20484;-90
2022/05/17 05:06:09;;;;;;;4.03;1.73;;;16.30;85.70;;;;;;2081828;28;20037;-91
2022/05/17 05:07:28;;;;;;;3.83;2.03;;;16.30;85.80;;;;;;2077349;28;20427;-91
2022/05/17 05:08:48;;;;;;;3.78;1.90;;;16.30;85.70;;;;;;2072162;28;20038;-82
2022/05/17 05:10:08;;;;;;;3.60;1.73;;;16.40;85.70;;;;;;2073834;28;20030;-86
2022/05/17 05:11:46;;;;;;;3.20;1.73;;;16.40;85.70;;;;;;2083051;28;20038;-95
2022/05/17 05:13:20;;;;;;;3.17;1.63;;;16.40;85.60;;;;;;2073185;28;20038;-95
2022/05/17 05:14:48;;;;;;;3.60;1.77;;;16.40;85.60;;;;;;2063486;28;20031;-96
2022/05/17 05:16:11;;;;;;;3.75;1.80;;;16.40;85.50;;;;;;2062941;28;20039;-96
2022/05/17 05:17:35;;;;;;;3.85;1.95;;;16.50;85.50;;;;;;2070450;28;20042;-96
2022/05/17 05:18:55;;;;;;;3.92;1.65;;;16.50;85.50;;;;;;2079588;28;20015;-95
2022/05/17 05:20:23;;;;;;;3.88;1.90;;;16.50;85.40;;;;;;2054026;29;20087;-96
2022/05/17 05:21:43;;;;;;;4.30;1.85;;;16.60;85.40;;;;;;2069387;28;20050;-96
2022/05/17 05:23:03;;;;;;;3.65;1.83;;;16.60;85.30;;;;;;2067424;28;20031;-96
2022/05/17 05:26:39;;;;;;;3.28;1.80;;;16.60;85.20;;;;;;2073288;28;20062;-91
2022/05/17 05:27:59;;;;;;;3.17;1.73;;;16.70;85.20;;;;;;2063999;28;20043;-94
2022/05/17 05:29:19;;;;;;;4.82;1.88;;;16.70;85.20;;;;;;2059439;28;20043;-96
2022/05/17 05:30:45;;;;;;;4.32;1.80;;;16.70;85.80;;;;;;2068733;28;20019;-96
2022/05/17 05:32:32;;;;;;;3.83;1.80;;;16.70;85.20;;;;;;2071322;28;20031;-95
2022/05/17 05:33:35;;;;;;;4.35;2.08;;;16.70;85.20;;;;;;2087594;23;20050;-92
2022/05/17 05:34:55;;;;;;;4.88;2.08;;;16.80;85.20;;;;;;2050249;29;20035;-92
2022/05/17 05:36:14;;;;;;;4.13;1.95;;;16.90;85.10;;;;;;2052371;28;20047;-93
2022/05/17 05:37:33;;;;;;;4.30;2.13;;;16.90;85.00;;;;;;2054809;28;20034;-93
2022/05/17 05:38:53;;;;;;;3.75;1.92;;;17.00;85.00;;;;;;2053974;28;20480;-92
2022/05/17 05:40:13;;;;;;;4.78;2.15;;;17.00;84.90;;;;;;2039485;29;20516;-92
2022/05/17 05:41:33;;;;;;;6.35;1.90;;;17.00;84.80;;;;;;2045170;29;20031;-92
2022/05/17 05:42:53;;;;;;;4.35;2.10;;;17.10;84.80;;;;;;2038704;29;20492;-92
2022/05/17 05:44:13;;;;;;;4.93;2.05;;;17.10;84.70;;;;;;2039673;29;20040;-93
2022/05/17 05:45:32;;;;;;;5.15;2.00;;;17.10;84.70;;;;;;2032393;29;20044;-92
2022/05/17 05:46:51;;;;;;;5.05;2.33;;;17.10;84.60;;;;;;2043703;29;20063;-91
2022/05/17 05:48:10;;;;;;;4.03;2.00;;;17.10;84.60;;;;;;2045215;28;20036;-92
2022/05/17 05:49:29;;;;;;;5.28;2.25;;;17.10;84.60;;;;;;2041828;29;20047;-92
2022/05/17 05:50:52;;;;;;;3.88;2.03;;;17.10;84.60;;;;;;2041083;29;20044;-92
2022/05/17 05:52:12;;;;;;;3.28;1.70;;;17.10;84.70;;;;;;2049746;29;20054;-92
2022/05/17 05:53:31;;;;;;;5.10;1.90;;;17.10;84.70;;;;;;2047836;29;20035;-93
2022/05/17 05:54:51;;;;;;;4.43;2.00;;;17.10;84.70;;;;;;2049828;29;20126;-92
2022/05/17 05:56:11;;;;;;;5.28;2.10;;;17.10;84.70;;;;;;2042570;29;20040;-92
2022/05/17 05:57:31;;;;;;;3.47;1.70;;;17.10;84.70;;;;;;2042518;29;20051;-92
2022/05/17 05:58:50;;;;;;;3.92;2.00;;;17.10;84.70;;;;;;2042688;29;20036;-91
2022/05/17 06:00:11;;;;;;;4.93;2.00;;;17.10;84.70;;;;;;2037028;29;20044;-92
2022/05/17 06:01:30;;;;;;;4.28;2.13;;;17.10;84.70;;;;;;2053131;28;20508;-92
2022/05/17 06:02:51;;;;;;;4.63;2.30;;;17.10;84.70;;;;;;2050929;29;20035;-92
2022/05/17 06:04:10;;;;;;;3.88;2.20;;;17.10;84.70;;;;;;2042704;29;20044;-92
2022/05/17 06:05:30;;;;;;;4.13;2.00;;;17.10;84.70;;;;;;2043242;29;20043;-93
2022/05/17 06:06:49;;;;;;;4.22;2.08;;;17.20;84.70;;;;;;2046087;28;20056;-94
2022/05/17 06:08:16;;;;;;;4.28;2.20;;;17.20;84.70;;;;;;2051097;29;20043;-92
2022/05/17 06:09:36;;;;;;;4.10;2.08;;;17.20;84.70;;;;;;2040594;29;20044;-93
2022/05/17 06:10:56;;;;;;;5.38;2.00;;;17.20;84.70;;;;;;2039622;29;20444;-93
2022/05/17 06:12:16;;;;;;;4.90;2.10;;;17.20;84.60;;;;;;2047499;29;20039;-93
2022/05/17 06:13:36;;;;;;;4.97;2.33;;;17.20;84.60;;;;;;2046567;29;20055;-92
2022/05/17 06:14:55;;;;;;;4.78;2.40;;;17.20;84.60;;;;;;2044634;29;20484;-92
2022/05/17 06:16:16;;;;;;;4.10;2.10;;;17.20;84.50;;;;;;2051747;28;20046;-92
2022/05/17 06:17:37;;;;;;;4.50;2.30;;;17.20;84.40;;;;;;2046814;28;20075;-92
2022/05/17 06:18:56;;;;;;;4.10;2.10;;;17.30;84.40;;;;;;2044704;29;20051;-92
2022/05/17 06:20:16;;;;;;;4.03;2.30;;;17.30;84.30;;;;;;2042877;29;20040;-92
2022/05/17 06:21:36;;;;;;;5.00;2.38;;;17.30;84.20;;;;;;2039510;29;20048;-92
2022/05/17 06:22:56;;;;;;;4.47;2.03;;;17.30;84.10;;;;;;2040178;29;20044;-93
2022/05/17 06:24:16;;;;;;;4.38;2.22;;;17.40;84.10;;;;;;2051148;29;20050;-93
2022/05/17 06:25:36;;;;;;;4.63;2.03;;;17.40;83.90;;;;;;2056281;29;20019;-93
2022/05/17 06:26:55;;;;;;;4.68;2.17;;;17.40;83.80;;;;;;2048744;29;20043;-92
2022/05/17 06:28:15;;;;;;;3.92;1.90;;;17.50;83.80;;;;;;2046404;29;20067;-93
2022/05/17 06:29:34;;;;;;;4.82;1.90;;;17.50;83.70;;;;;;2042005;29;20040;-93
2022/05/17 06:30:53;;;;;;;4.47;1.75;;;17.60;83.70;;;;;;2043049;29;20036;-92
2022/05/17 06:32:15;;;;;;;4.88;1.90;;;17.60;83.50;;;;;;2043900;28;20038;-92
2022/05/17 06:33:34;;;;;;;4.18;1.77;;;17.70;83.40;;;;;;2038489;29;20126;-93
2022/05/17 06:34:53;;;;;;;4.30;1.83;;;17.70;83.30;;;;;;2036480;29;20127;-92
2022/05/17 06:36:13;;;;;;;3.95;1.80;;;17.80;83.10;;;;;;2034681;29;20044;-92
2022/05/17 06:37:33;;;;;;;4.07;1.67;;;17.80;83.00;;;;;;2049393;28;20055;-93
2022/05/17 06:38:52;;;;;;;4.43;1.77;;;17.90;82.80;;;;;;2035988;29;20072;-92
2022/05/17 06:40:12;;;;;;;3.75;1.40;;;18.00;82.70;;;;;;2035994;29;20413;-93
2022/05/17 06:41:32;;;;;;;5.03;1.58;;;18.00;82.50;;;;;;2048586;28;20038;-92
2022/05/17 06:42:53;;;;;;;4.03;1.52;;;18.10;82.40;;;;;;2046216;29;20055;-92
2022/05/17 06:44:12;;;;;;;3.40;1.52;;;18.20;82.30;;;;;;2049071;28;20043;-93
2022/05/17 06:45:31;;;;;;;2.75;1.48;;;18.20;82.10;;;;;;2038937;29;20393;-92
2022/05/17 06:46:52;;;;;;;3.65;1.95;;;18.30;82.00;;;;;;2048753;28;20491;-93
2022/05/17 06:48:11;;;;;;;3.97;1.80;;;18.40;82.00;;;;;;2038465;29;20044;-92
2022/05/17 06:49:31;;;;;;;2.78;1.67;;;18.40;81.80;;;;;;2035329;29;20067;-93
2022/05/17 06:50:51;;;;;;;3.58;1.58;;;18.40;81.80;;;;;;2058322;28;20038;-92
2022/05/17 06:52:10;;;;;;;4.53;1.77;;;18.50;81.70;;;;;;2053777;28;20047;-93
2022/05/17 06:53:30;;;;;;;4.03;1.52;;;18.40;81.40;;;;;;2040652;29;20523;-94
2022/05/17 06:54:49;;;;;;;5.25;1.70;;;18.50;81.40;;;;;;2048642;28;20047;-92
2022/05/17 06:56:09;;;;;;;3.25;1.42;;;18.60;81.40;;;;;;2047407;28;20039;-92
2022/05/17 06:57:28;;;;;;;4.65;1.50;;;18.60;81.20;;;;;;2041756;29;20051;-94
2022/05/17 06:58:47;;;;;;;3.45;1.52;;;18.70;81.10;;;;;;2036579;29;20048;-94
2022/05/17 07:00:13;;;;;;;2.78;1.42;;;18.70;80.80;;;;;;2045590;29;20043;-94
2022/05/17 07:01:33;;;;;;;3.28;1.20;;;18.80;80.60;;;;;;2046017;28;20043;-92
2022/05/17 07:02:52;;;;;;;3.22;1.38;;;18.80;80.40;;;;;;2050343;28;20043;-92
2022/05/17 07:04:13;;;;;;;3.35;1.30;;;18.90;80.20;;;;;;2047599;28;20420;-93